Time;durP1;ratioP1;P1;durP2;ratioP2;P2;SDS_P1;SDS_P2;PMS_P1;PMS_P2;Temp;Humidity;BMP_temperature;BMP_pressure;BME280_temperature;BME280_humidity;BME280_pressure;Samples;Min_cycle;Max_cycle;Signal;HPM_P1;HPM_P2
2023/07/23 00:00:29;;;;;;;6.03;4.77;;;;;;;;;;5057628;28;20815;-80
2023/07/23 00:02:57;;;;;;;4.43;4.03;;;;;;;;;;5057890;28;20527;-80
2023/07/23 00:05:24;;;;;;;5.50;4.60;;;;;;;;;;5057643;28;20456;-80
2023/07/23 00:07:51;;;;;;;4.60;4.20;;;;;;;;;;5057147;28;20444;-80
2023/07/23 00:10:18;;;;;;;5.03;4.53;;;;;;;;;;5057625;28;20448;-80
2023/07/23 00:12:47;;;;;;;4.53;4.13;;;;;;;;;;5057671;28;20453;-80
2023/07/23 00:15:14;;;;;;;6.53;4.43;;;;;;;;;;5058494;28;20467;-81
2023/07/23 00:17:42;;;;;;;5.93;4.20;;;;;;;;;;5058632;28;20524;-81
2023/07/23 00:20:10;;;;;;;6.50;4.77;;;;;;;;;;5059746;28;20480;-80
2023/07/23 00:22:37;;;;;;;5.87;3.73;;;;;;;;;;5059080;28;20461;-80
2023/07/23 00:25:05;;;;;;;4.03;3.63;;;;;;;;;;5059310;28;20449;-81
2023/07/23 00:27:32;;;;;;;5.03;4.40;;;;;;;;;;5059186;28;20823;-81
2023/07/23 00:30:01;;;;;;;5.33;4.10;;;;;;;;;;5057867;28;20460;-80
2023/07/23 00:32:28;;;;;;;5.20;3.73;;;;;;;;;;5058527;28;20479;-80
2023/07/23 00:34:55;;;;;;;5.50;4.40;;;;;;;;;;5058770;28;20882;-81
2023/07/23 00:37:22;;;;;;;6.03;4.40;;;;;;;;;;5058177;28;20448;-80
2023/07/23 00:39:49;;;;;;;4.73;4.27;;;;;;;;;;5057135;28;20484;-80
2023/07/23 00:42:17;;;;;;;5.17;4.20;;;;;;;;;;5057450;28;20522;-80
2023/07/23 00:44:44;;;;;;;5.20;4.23;;;;;;;;;;5057034;28;20536;-80
2023/07/23 00:47:13;;;;;;;8.23;4.80;;;;;;;;;;5057000;28;20843;-80
2023/07/23 00:49:40;;;;;;;5.40;4.40;;;;;;;;;;5056634;28;20463;-80
2023/07/23 00:52:08;;;;;;;4.97;4.03;;;;;;;;;;5056834;28;20850;-80
2023/07/23 00:54:36;;;;;;;5.30;4.27;;;;;;;;;;5056575;28;20449;-80
2023/07/23 00:57:03;;;;;;;5.23;3.90;;;;;;;;;;5056710;28;20461;-80
2023/07/23 00:59:32;;;;;;;4.60;3.70;;;;;;;;;;5056376;28;21011;-80
2023/07/23 01:01:59;;;;;;;6.30;4.83;;;;;;;;;;5056757;28;20560;-80
2023/07/23 01:04:28;;;;;;;5.30;4.37;;;;;;;;;;5056599;28;20459;-80
2023/07/23 01:06:55;;;;;;;4.83;4.33;;;;;;;;;;5056616;28;20457;-80
2023/07/23 01:09:23;;;;;;;5.80;4.37;;;;;;;;;;5056296;28;20448;-79
2023/07/23 01:11:51;;;;;;;6.20;4.23;;;;;;;;;;5056273;28;20495;-80
2023/07/23 01:14:19;;;;;;;4.83;4.20;;;;;;;;;;5056435;28;20453;-78
2023/07/23 01:16:46;;;;;;;5.30;4.20;;;;;;;;;;5056306;28;20468;-79
2023/07/23 01:19:13;;;;;;;6.40;4.53;;;;;;;;;;5055900;28;20516;-80
2023/07/23 01:21:42;;;;;;;7.30;4.83;;;;;;;;;;5056239;28;20480;-80
2023/07/23 01:24:10;;;;;;;5.37;4.07;;;;;;;;;;5056749;28;20480;-80
2023/07/23 01:26:37;;;;;;;5.87;4.63;;;;;;;;;;5056013;28;20445;-80
2023/07/23 01:29:04;;;;;;;5.50;4.43;;;;;;;;;;5055896;28;20475;-80
2023/07/23 01:31:32;;;;;;;4.40;3.77;;;;;;;;;;5055952;28;20477;-80
2023/07/23 01:34:00;;;;;;;4.60;4.03;;;;;;;;;;5056402;28;20459;-80
2023/07/23 01:36:27;;;;;;;4.73;4.23;;;;;;;;;;5056475;28;20457;-80
2023/07/23 01:38:54;;;;;;;6.13;4.07;;;;;;;;;;5055974;28;20484;-80
2023/07/23 01:41:23;;;;;;;10.10;4.50;;;;;;;;;;5056030;28;20547;-80
2023/07/23 01:43:50;;;;;;;6.43;4.67;;;;;;;;;;5058090;28;20826;-80
2023/07/23 01:46:17;;;;;;;7.83;4.23;;;;;;;;;;5058309;28;20457;-80
2023/07/23 01:48:45;;;;;;;8.70;3.90;;;;;;;;;;5057663;28;20550;-78
2023/07/23 01:51:13;;;;;;;4.43;3.97;;;;;;;;;;5057292;28;20476;-81
2023/07/23 01:53:40;;;;;;;5.63;3.87;;;;;;;;;;5058200;28;20468;-80
2023/07/23 01:56:07;;;;;;;6.33;4.77;;;;;;;;;;5058113;28;20459;-81
2023/07/23 01:58:35;;;;;;;8.07;4.63;;;;;;;;;;5056339;28;20551;-81
2023/07/23 02:01:04;;;;;;;4.80;4.30;;;;;;;;;;5056937;28;20544;-80
2023/07/23 02:03:31;;;;;;;4.63;4.13;;;;;;;;;;5057313;28;20818;-80
2023/07/23 02:06:00;;;;;;;5.53;4.30;;;;;;;;;;5058131;28;20555;-80
2023/07/23 02:08:27;;;;;;;5.60;3.77;;;;;;;;;;5056061;28;20456;-80
2023/07/23 02:10:59;;;;;;;7.10;4.60;;;;;;;;;;5056048;28;20483;-80
2023/07/23 02:13:26;;;;;;;6.93;4.80;;;;;;;;;;5056101;28;20511;-80
2023/07/23 02:15:55;;;;;;;5.10;4.60;;;;;;;;;;5056828;28;20510;-80
2023/07/23 02:18:22;;;;;;;6.70;4.70;;;;;;;;;;5057030;28;20463;-80
2023/07/23 02:20:49;;;;;;;9.83;4.87;;;;;;;;;;5057115;28;21027;-80
2023/07/23 02:23:17;;;;;;;4.93;4.20;;;;;;;;;;5056927;28;20456;-79
2023/07/23 02:25:44;;;;;;;10.37;5.30;;;;;;;;;;5057565;28;20465;-79
2023/07/23 02:28:11;;;;;;;7.77;5.53;;;;;;;;;;5055493;28;20453;-80
2023/07/23 02:30:38;;;;;;;5.33;4.13;;;;;;;;;;5057151;28;20481;-78
2023/07/23 02:33:07;;;;;;;4.63;3.90;;;;;;;;;;5058176;28;20442;-78
2023/07/23 02:35:37;;;;;;;5.00;3.90;;;;;;;;;;5057413;28;20461;-78
2023/07/23 02:38:04;;;;;;;7.30;4.50;;;;;;;;;;5056578;28;20452;-78
2023/07/23 02:40:32;;;;;;;5.07;4.57;;;;;;;;;;5056375;28;20573;-79
2023/07/23 02:43:00;;;;;;;5.50;4.17;;;;;;;;;;5057055;28;20486;-79
2023/07/23 02:45:28;;;;;;;5.90;4.93;;;;;;;;;;5055891;28;20510;-81
2023/07/23 02:47:55;;;;;;;4.80;4.37;;;;;;;;;;5056340;28;20853;-78
2023/07/23 02:50:25;;;;;;;4.43;4.03;;;;;;;;;;5056472;28;20445;-78
2023/07/23 02:52:52;;;;;;;6.30;4.33;;;;;;;;;;5055527;28;20456;-78
2023/07/23 02:55:20;;;;;;;6.27;5.03;;;;;;;;;;5055891;28;20463;-81
2023/07/23 02:57:47;;;;;;;5.17;4.10;;;;;;;;;;5055851;28;20503;-78
2023/07/23 03:00:14;;;;;;;6.47;5.80;;;;;;;;;;5056728;28;20488;-78
2023/07/23 03:02:41;;;;;;;4.70;4.20;;;;;;;;;;5057057;28;20480;-79
2023/07/23 03:05:09;;;;;;;5.30;4.30;;;;;;;;;;5055883;28;20463;-79
2023/07/23 03:07:37;;;;;;;7.43;4.93;;;;;;;;;;5055821;28;20460;-79
2023/07/23 03:10:05;;;;;;;6.43;5.70;;;;;;;;;;5057136;28;20452;-79
2023/07/23 03:12:33;;;;;;;6.60;4.77;;;;;;;;;;5057800;28;20836;-80
2023/07/23 03:15:00;;;;;;;8.70;4.40;;;;;;;;;;5057080;28;20517;-81
2023/07/23 03:17:27;;;;;;;5.87;4.10;;;;;;;;;;5056207;28;20474;-81
2023/07/23 03:19:54;;;;;;;5.93;4.40;;;;;;;;;;5055840;28;20825;-81
2023/07/23 03:22:21;;;;;;;4.80;4.30;;;;;;;;;;5054183;28;20483;-80
2023/07/23 03:24:50;;;;;;;8.13;4.77;;;;;;;;;;5055574;28;20463;-80
2023/07/23 03:27:17;;;;;;;5.10;4.30;;;;;;;;;;5054529;28;20548;-80
2023/07/23 03:29:44;;;;;;;5.30;4.43;;;;;;;;;;5054742;28;21008;-80
2023/07/23 03:32:11;;;;;;;5.80;4.37;;;;;;;;;;5054362;28;20480;-79
2023/07/23 03:34:38;;;;;;;6.07;4.50;;;;;;;;;;5054026;28;20453;-81
2023/07/23 03:37:06;;;;;;;4.00;3.23;;;;;;;;;;5054097;28;20453;-81
2023/07/23 03:39:33;;;;;;;5.77;4.27;;;;;;;;;;5053114;28;20492;-80
2023/07/23 03:42:02;;;;;;;5.30;4.03;;;;;;;;;;5054595;28;20480;-80
2023/07/23 03:44:29;;;;;;;5.00;4.17;;;;;;;;;;5053585;28;20456;-80
2023/07/23 03:47:02;;;;;;;8.40;4.60;;;;;;;;;;5053824;28;20452;-80
2023/07/23 03:49:30;;;;;;;4.23;3.60;;;;;;;;;;5053153;28;20453;-80
2023/07/23 03:51:58;;;;;;;5.83;4.40;;;;;;;;;;5053058;28;20472;-80
2023/07/23 03:54:25;;;;;;;6.33;3.90;;;;;;;;;;5054267;28;20453;-80
2023/07/23 03:56:53;;;;;;;4.63;4.13;;;;;;;;;;5053483;28;20507;-80
2023/07/23 03:59:21;;;;;;;9.60;4.57;;;;;;;;;;5053122;28;20466;-81
2023/07/23 04:01:48;;;;;;;4.27;3.67;;;;;;;;;;5053909;28;20473;-81
2023/07/23 04:04:15;;;;;;;6.10;4.43;;;;;;;;;;5055482;28;20452;-81
2023/07/23 04:06:42;;;;;;;4.43;3.93;;;;;;;;;;5058070;28;20459;-80
2023/07/23 04:09:09;;;;;;;5.97;4.13;;;;;;;;;;5058228;28;20546;-81
2023/07/23 04:11:37;;;;;;;5.93;3.57;;;;;;;;;;5057502;28;20472;-80
2023/07/23 04:14:04;;;;;;;4.23;3.70;;;;;;;;;;5058255;28;20448;-80
2023/07/23 04:16:32;;;;;;;4.40;3.93;;;;;;;;;;5059824;28;20453;-81
2023/07/23 04:18:59;;;;;;;4.63;3.70;;;;;;;;;;5057481;28;20779;-81
2023/07/23 04:21:26;;;;;;;7.53;4.00;;;;;;;;;;5057917;28;20495;-81
2023/07/23 04:23:55;;;;;;;5.80;4.20;;;;;;;;;;5057692;28;20822;-80
2023/07/23 04:26:22;;;;;;;5.07;3.80;;;;;;;;;;5057447;28;20468;-80
2023/07/23 04:28:50;;;;;;;4.20;3.80;;;;;;;;;;5057778;28;20567;-80
2023/07/23 04:31:17;;;;;;;3.90;3.50;;;;;;;;;;5058440;28;20461;-80
2023/07/23 04:33:46;;;;;;;4.57;3.00;;;;;;;;;;5057620;28;20491;-81
2023/07/23 04:36:13;;;;;;;4.00;3.60;;;;;;;;;;5056867;28;20808;-81
2023/07/23 04:38:41;;;;;;;4.47;3.90;;;;;;;;;;5056008;28;20459;-81
2023/07/23 04:41:08;;;;;;;5.97;4.03;;;;;;;;;;5056574;28;20497;-81
2023/07/23 04:43:36;;;;;;;6.73;3.43;;;;;;;;;;5056484;28;20464;-80
2023/07/23 04:46:04;;;;;;;4.23;3.33;;;;;;;;;;5056134;28;20457;-80
2023/07/23 04:48:31;;;;;;;9.03;3.40;;;;;;;;;;5056149;28;20472;-80
2023/07/23 04:51:00;;;;;;;4.67;2.97;;;;;;;;;;5056173;28;20582;-80
2023/07/23 04:53:27;;;;;;;4.10;3.10;;;;;;;;;;5056500;28;20460;-79
2023/07/23 04:55:55;;;;;;;3.60;3.30;;;;;;;;;;5056452;28;20521;-81
2023/07/23 04:58:22;;;;;;;3.63;3.30;;;;;;;;;;5057036;28;20511;-81
2023/07/23 05:00:50;;;;;;;6.43;3.13;;;;;;;;;;5056683;28;20500;-81
2023/07/23 05:03:17;;;;;;;4.10;3.40;;;;;;;;;;5059230;28;20437;-81
2023/07/23 05:05:46;;;;;;;4.40;3.30;;;;;;;;;;5059082;28;21005;-81
2023/07/23 05:08:15;;;;;;;4.50;3.60;;;;;;;;;;5059034;28;20559;-79
2023/07/23 05:10:42;;;;;;;4.17;3.77;;;;;;;;;;5059618;28;20481;-81
2023/07/23 05:13:10;;;;;;;3.23;2.87;;;;;;;;;;5059062;28;20899;-82
2023/07/23 05:15:37;;;;;;;3.23;2.93;;;;;;;;;;5059354;28;20823;-82
2023/07/23 05:18:04;;;;;;;3.47;3.17;;;;;;;;;;5057884;28;20586;-82
2023/07/23 05:20:31;;;;;;;4.30;3.57;;;;;;;;;;5057971;28;20484;-81
2023/07/23 05:22:58;;;;;;;3.40;3.00;;;;;;;;;;5059283;28;20448;-82
2023/07/23 05:25:27;;;;;;;8.13;3.90;;;;;;;;;;5058016;28;20907;-78
2023/07/23 05:27:54;;;;;;;4.87;4.40;;;;;;;;;;5058369;28;20452;-77
2023/07/23 05:30:21;;;;;;;3.37;3.07;;;;;;;;;;5054813;28;20456;-76
2023/07/23 05:32:49;;;;;;;3.60;3.30;;;;;;;;;;5055265;28;20548;-79
2023/07/23 05:35:16;;;;;;;6.03;2.97;;;;;;;;;;5056325;28;20456;-79
2023/07/23 05:37:43;;;;;;;5.20;2.97;;;;;;;;;;5057146;28;21008;-79
2023/07/23 05:40:10;;;;;;;3.40;2.50;;;;;;;;;;5057470;28;21035;-78
2023/07/23 05:42:39;;;;;;;4.13;3.30;;;;;;;;;;5056664;28;20476;-79
2023/07/23 05:45:06;;;;;;;4.70;3.40;;;;;;;;;;5057205;28;20444;-78
2023/07/23 05:47:33;;;;;;;6.20;3.50;;;;;;;;;;5056439;28;20460;-78
2023/07/23 05:50:01;;;;;;;4.43;2.97;;;;;;;;;;5056183;28;20448;-77
2023/07/23 05:52:28;;;;;;;2.77;2.50;;;;;;;;;;5054779;28;20479;-77
2023/07/23 05:54:55;;;;;;;5.00;3.40;;;;;;;;;;5054677;28;20460;-78
2023/07/23 05:57:22;;;;;;;3.60;3.30;;;;;;;;;;5054606;28;20957;-78
2023/07/23 05:59:50;;;;;;;3.33;3.03;;;;;;;;;;5055926;28;20472;-78
2023/07/23 06:02:17;;;;;;;2.77;2.50;;;;;;;;;;5055493;28;20482;-78
2023/07/23 06:04:45;;;;;;;3.20;2.90;;;;;;;;;;5055988;28;20460;-78
2023/07/23 06:07:12;;;;;;;3.00;2.60;;;;;;;;;;5054652;28;20649;-76
2023/07/23 06:09:39;;;;;;;3.40;3.10;;;;;;;;;;5046815;28;20461;-76
2023/07/23 06:12:06;;;;;;;2.93;2.67;;;;;;;;;;5013235;28;20227;-76
2023/07/23 06:14:34;;;;;;;3.20;2.90;;;;;;;;;;5012792;28;20226;-76
2023/07/23 06:17:02;;;;;;;2.97;2.67;;;;;;;;;;5013644;28;20247;-77
2023/07/23 06:19:29;;;;;;;4.53;2.60;;;;;;;;;;5013713;28;20609;-76
2023/07/23 06:21:56;;;;;;;3.40;2.50;;;;;;;;;;5051586;28;20240;-78
2023/07/23 06:24:23;;;;;;;3.07;2.77;;;;;;;;;;5038121;28;20207;-76
2023/07/23 06:26:51;;;;;;;5.23;2.80;;;;;;;;;;5015271;28;20219;-79
2023/07/23 06:29:18;;;;;;;3.63;3.10;;;;;;;;;;5013943;28;20579;-78
2023/07/23 06:31:45;;;;;;;3.28;2.97;;;;;;;;;;5013639;28;20233;-78
2023/07/23 06:34:13;;;;;;;3.60;3.30;;;;;;;;;;5014124;28;20227;-77
2023/07/23 06:36:41;;;;;;;3.67;3.08;;;;;;;;;;5014143;28;20706;-78
2023/07/23 06:39:08;;;;;;;5.88;2.80;;;;;;;;;;5014228;28;20310;-77
2023/07/23 06:41:35;;;;;;;2.90;2.60;;;;;;;;;;5014362;28;20253;-78
2023/07/23 06:44:02;;;;;;;2.70;2.42;;;;;;;;;;5015736;28;20210;-78
2023/07/23 06:46:29;;;;;;;3.92;2.45;;;;;;;;;;5014613;28;20207;-77
2023/07/23 06:48:56;;;;;;;3.15;2.95;;;;;;;;;;5014228;28;20221;-77
2023/07/23 06:51:25;;;;;;;3.45;2.63;;;;;;;;;;5013725;28;20242;-77
2023/07/23 06:53:52;;;;;;;2.90;2.70;;;;;;;;;;5013957;28;20302;-77
2023/07/23 06:56:20;;;;;;;3.13;2.92;;;;;;;;;;5014649;28;20230;-77
2023/07/23 06:58:47;;;;;;;2.95;2.75;;;;;;;;;;5014559;28;20261;-78
2023/07/23 07:01:14;;;;;;;2.85;2.65;;;;;;;;;;5014605;28;20241;-77
2023/07/23 07:03:41;;;;;;;2.55;2.35;;;;;;;;;;5015014;28;20211;-77
2023/07/23 07:06:08;;;;;;;3.88;3.47;;;;;;;;;;5014132;28;20211;-77
2023/07/23 07:08:37;;;;;;;3.20;2.90;;;;;;;;;;5014289;28;20230;-77
2023/07/23 07:11:09;;;;;;;3.95;3.65;;;;;;;;;;5012644;28;20662;-78
2023/07/23 07:13:37;;;;;;;3.85;2.80;;;;;;;;;;5052775;28;20288;-78
2023/07/23 07:16:04;;;;;;;2.88;2.67;;;;;;;;;;5053002;28;20216;-77
2023/07/23 07:18:32;;;;;;;3.97;3.10;;;;;;;;;;5052312;28;20209;-77
2023/07/23 07:21:00;;;;;;;3.92;3.63;;;;;;;;;;5053256;28;20229;-78
2023/07/23 07:23:27;;;;;;;4.78;3.15;;;;;;;;;;5052541;28;20256;-78
2023/07/23 07:25:56;;;;;;;3.00;2.67;;;;;;;;;;5053219;28;20215;-78
2023/07/23 07:28:23;;;;;;;3.47;3.03;;;;;;;;;;5053158;28;20243;-77
2023/07/23 07:30:50;;;;;;;4.63;3.43;;;;;;;;;;5052906;28;20226;-78
2023/07/23 07:33:18;;;;;;;2.92;2.67;;;;;;;;;;5052342;28;20275;-78
2023/07/23 07:35:45;;;;;;;3.17;2.90;;;;;;;;;;5052065;28;20223;-77
2023/07/23 07:38:13;;;;;;;2.85;2.65;;;;;;;;;;5053776;28;20213;-78
2023/07/23 07:40:40;;;;;;;3.40;3.10;;;;;;;;;;5058040;28;20235;-77
2023/07/23 07:43:09;;;;;;;3.28;2.33;;;;;;;;;;5056527;28;20218;-76
2023/07/23 07:45:36;;;;;;;2.97;2.67;;;;;;;;;;5055892;28;20220;-77
2023/07/23 07:48:03;;;;;;;3.33;3.03;;;;;;;;;;5056371;28;20216;-77
2023/07/23 07:50:31;;;;;;;3.65;2.50;;;;;;;;;;5056458;28;20217;-77
2023/07/23 07:52:59;;;;;;;2.58;2.38;;;;;;;;;;5056443;28;20587;-77
2023/07/23 07:55:26;;;;;;;3.13;2.83;;;;;;;;;;5056175;28;20213;-76
2023/07/23 07:57:53;;;;;;;6.60;3.23;;;;;;;;;;5056186;28;20206;-77
2023/07/23 08:00:22;;;;;;;3.50;3.20;;;;;;;;;;5055873;28;20225;-77
2023/07/23 08:02:50;;;;;;;3.40;3.10;;;;;;;;;;5055984;28;20543;-77
2023/07/23 08:05:17;;;;;;;3.30;2.60;;;;;;;;;;5055753;28;20209;-77
2023/07/23 08:07:44;;;;;;;3.30;3.00;;;;;;;;;;5056047;28;20205;-76
2023/07/23 08:10:12;;;;;;;3.00;2.80;;;;;;;;;;5055696;28;20216;-76
2023/07/23 08:12:39;;;;;;;3.27;2.93;;;;;;;;;;5055357;28;20603;-76
2023/07/23 08:15:08;;;;;;;6.30;3.10;;;;;;;;;;5055544;28;20460;-76
2023/07/23 08:17:37;;;;;;;3.20;2.90;;;;;;;;;;5055288;28;20550;-76
2023/07/23 08:20:05;;;;;;;2.97;2.70;;;;;;;;;;5055703;28;20455;-76
2023/07/23 08:22:32;;;;;;;2.63;2.43;;;;;;;;;;5055175;28;20492;-77
2023/07/23 08:25:00;;;;;;;3.50;2.53;;;;;;;;;;5055473;28;20448;-77
2023/07/23 08:27:28;;;;;;;2.90;2.17;;;;;;;;;;5054711;28;20482;-76
2023/07/23 08:29:56;;;;;;;2.77;2.57;;;;;;;;;;5055119;28;20901;-76
2023/07/23 08:32:23;;;;;;;2.70;2.50;;;;;;;;;;5054933;28;20467;-76
2023/07/23 08:34:52;;;;;;;4.47;3.53;;;;;;;;;;5055207;28;20451;-77
2023/07/23 08:37:19;;;;;;;4.30;4.00;;;;;;;;;;5054511;28;20452;-76
2023/07/23 08:39:46;;;;;;;3.13;2.83;;;;;;;;;;5055125;28;20826;-77
2023/07/23 08:42:31;;;;;;;2.80;2.60;;;;;;;;;;5054770;28;20495;-77
2023/07/23 08:45:09;;;;;;;5.60;2.30;;;;;;;;;;5055191;28;20462;-77
2023/07/23 08:47:38;;;;;;;5.23;3.43;;;;;;;;;;5054993;28;20824;-76
2023/07/23 08:50:07;;;;;;;3.63;2.53;;;;;;;;;;5054118;28;20824;-77
2023/07/23 08:52:35;;;;;;;3.90;2.77;;;;;;;;;;5054761;28;20837;-76
2023/07/23 08:55:03;;;;;;;3.10;2.73;;;;;;;;;;5054650;28;20832;-77
2023/07/23 08:57:30;;;;;;;3.10;2.80;;;;;;;;;;5054558;28;20448;-77
2023/07/23 08:59:58;;;;;;;3.10;2.80;;;;;;;;;;5054483;28;20486;-77
2023/07/23 09:02:26;;;;;;;2.97;2.77;;;;;;;;;;5054528;28;20492;-77
2023/07/23 09:04:53;;;;;;;4.20;3.60;;;;;;;;;;5054971;28;20452;-77
2023/07/23 09:07:21;;;;;;;3.27;2.73;;;;;;;;;;5055176;28;20458;-77
2023/07/23 09:09:49;;;;;;;3.93;2.20;;;;;;;;;;5054303;28;20575;-76
2023/07/23 09:12:16;;;;;;;3.37;3.07;;;;;;;;;;5054068;28;20495;-76
2023/07/23 09:14:44;;;;;;;2.97;2.77;;;;;;;;;;5054307;28;20464;-76
2023/07/23 09:17:18;;;;;;;2.87;2.30;;;;;;;;;;5054189;28;20906;-76
2023/07/23 09:19:45;;;;;;;2.57;2.37;;;;;;;;;;5054079;28;20455;-77
2023/07/23 09:22:12;;;;;;;3.30;3.00;;;;;;;;;;5053865;28;20515;-77
2023/07/23 09:24:40;;;;;;;3.93;3.53;;;;;;;;;;5054544;28;20475;-76
2023/07/23 09:27:10;;;;;;;2.50;2.30;;;;;;;;;;5054143;28;20448;-76
2023/07/23 09:29:38;;;;;;;3.17;2.87;;;;;;;;;;5054006;28;20838;-76
2023/07/23 09:32:05;;;;;;;3.60;3.30;;;;;;;;;;5054174;28;20828;-76
2023/07/23 09:34:34;;;;;;;3.40;3.10;;;;;;;;;;5051715;23;20508;-78
2023/07/23 09:37:01;;;;;;;3.80;3.13;;;;;;;;;;5034489;28;20450;-77
2023/07/23 09:39:33;;;;;;;6.30;3.60;;;;;;;;;;5034325;28;20479;-77
2023/07/23 09:42:04;;;;;;;3.80;2.57;;;;;;;;;;5034564;28;20497;-78
2023/07/23 09:44:31;;;;;;;2.67;2.47;;;;;;;;;;5034615;28;20454;-77
2023/07/23 09:46:59;;;;;;;2.30;2.10;;;;;;;;;;5034308;28;20446;-77
2023/07/23 09:49:29;;;;;;;3.40;2.47;;;;;;;;;;5034529;28;20476;-77
2023/07/23 09:51:56;;;;;;;3.27;2.97;;;;;;;;;;5034777;28;20465;-78
2023/07/23 09:54:24;;;;;;;3.60;3.30;;;;;;;;;;5033880;28;20456;-77
2023/07/23 09:56:51;;;;;;;4.07;2.90;;;;;;;;;;5034314;28;20449;-78
2023/07/23 09:59:20;;;;;;;5.60;2.73;;;;;;;;;;5034797;28;20483;-78
2023/07/23 10:01:48;;;;;;;3.77;3.47;;;;;;;;;;5033674;28;20490;-77
2023/07/23 10:04:17;;;;;;;3.10;2.83;;;;;;;;;;5034341;28;20453;-77
2023/07/23 10:06:44;;;;;;;2.73;2.53;;;;;;;;;;5034350;28;20465;-78
2023/07/23 10:09:13;;;;;;;3.90;2.70;;;;;;;;;;5034509;28;20452;-77
2023/07/23 10:11:40;;;;;;;3.37;3.07;;;;;;;;;;5033832;28;20509;-78
2023/07/23 10:14:07;;;;;;;2.87;2.60;;;;;;;;;;5033164;28;20459;-76
2023/07/23 10:16:38;;;;;;;2.30;2.10;;;;;;;;;;5033415;28;20434;-77
2023/07/23 10:19:06;;;;;;;3.90;2.50;;;;;;;;;;5033035;28;20966;-76
2023/07/23 10:21:34;;;;;;;4.23;2.50;;;;;;;;;;5034321;28;20937;-77
2023/07/23 10:24:02;;;;;;;4.30;2.60;;;;;;;;;;5034731;28;20458;-78
2023/07/23 10:26:29;;;;;;;2.53;2.33;;;;;;;;;;5034336;28;20972;-78
2023/07/23 10:28:58;;;;;;;2.60;2.40;;;;;;;;;;5034079;28;20453;-78
2023/07/23 10:31:26;;;;;;;2.70;2.50;;;;;;;;;;5035101;28;20466;-78
2023/07/23 10:33:55;;;;;;;3.07;2.67;;;;;;;;;;5034702;28;20479;-78
2023/07/23 10:36:23;;;;;;;2.80;2.60;;;;;;;;;;5032885;28;20459;-77
2023/07/23 10:39:05;;;;;;;2.70;2.50;;;;;;;;;;5033627;28;20457;-79
2023/07/23 10:41:48;;;;;;;3.50;3.20;;;;;;;;;;5032916;28;20481;-77
2023/07/23 10:44:21;;;;;;;4.23;3.83;;;;;;;;;;5032720;28;20871;-77
2023/07/23 10:46:48;;;;;;;3.20;2.90;;;;;;;;;;5032673;28;20445;-77
2023/07/23 10:49:21;;;;;;;4.30;3.63;;;;;;;;;;5033239;28;20457;-78
2023/07/23 10:51:50;;;;;;;3.70;3.10;;;;;;;;;;5032456;28;20942;-76
2023/07/23 10:54:17;;;;;;;4.83;3.47;;;;;;;;;;5032718;28;20501;-76
2023/07/23 10:56:46;;;;;;;4.03;3.63;;;;;;;;;;5033747;28;20467;-78
2023/07/23 10:59:15;;;;;;;5.30;4.10;;;;;;;;;;5032445;28;20548;-77
2023/07/23 11:01:43;;;;;;;5.13;3.20;;;;;;;;;;5031914;28;20489;-77
2023/07/23 11:04:10;;;;;;;5.50;3.00;;;;;;;;;;5032490;28;20473;-77
2023/07/23 11:06:41;;;;;;;5.20;3.23;;;;;;;;;;5032189;28;20452;-77
2023/07/23 11:09:10;;;;;;;2.80;2.53;;;;;;;;;;5032425;28;20970;-77
2023/07/23 11:11:38;;;;;;;4.47;4.07;;;;;;;;;;5032243;28;20896;-77
2023/07/23 11:14:18;;;;;;;3.50;3.20;;;;;;;;;;5031465;28;20460;-77
2023/07/23 11:16:45;;;;;;;4.30;3.17;;;;;;;;;;5032242;28;20463;-76
2023/07/23 11:19:13;;;;;;;3.73;3.43;;;;;;;;;;5033162;28;20462;-76
2023/07/23 11:21:49;;;;;;;3.10;2.53;;;;;;;;;;5034069;28;20938;-78
2023/07/23 11:24:17;;;;;;;3.73;2.90;;;;;;;;;;5033827;28;20830;-78
2023/07/23 11:26:44;;;;;;;3.90;3.60;;;;;;;;;;5033191;28;20517;-78
2023/07/23 11:29:11;;;;;;;5.23;3.47;;;;;;;;;;5032654;28;20442;-78
2023/07/23 11:31:39;;;;;;;3.17;2.73;;;;;;;;;;5033400;28;20474;-77
2023/07/23 11:34:06;;;;;;;4.07;3.07;;;;;;;;;;5032918;28;20473;-76
2023/07/23 11:36:34;;;;;;;3.50;3.20;;;;;;;;;;5032912;28;20897;-78
2023/07/23 11:39:03;;;;;;;5.13;3.33;;;;;;;;;;5033336;28;20461;-78
2023/07/23 11:41:32;;;;;;;5.30;4.13;;;;;;;;;;5033642;28;20950;-78
2023/07/23 11:44:03;;;;;;;6.50;3.90;;;;;;;;;;5034609;28;20489;-78
2023/07/23 11:46:30;;;;;;;4.03;3.63;;;;;;;;;;5033619;28;20527;-78
2023/07/23 11:48:57;;;;;;;4.30;3.90;;;;;;;;;;5033646;28;20560;-78
2023/07/23 11:51:25;;;;;;;4.83;3.70;;;;;;;;;;5033701;28;20505;-77
2023/07/23 11:53:52;;;;;;;6.20;4.30;;;;;;;;;;5032162;28;20454;-77
2023/07/23 11:56:24;;;;;;;4.63;4.13;;;;;;;;;;5033179;28;20458;-76
2023/07/23 11:58:51;;;;;;;6.90;4.67;;;;;;;;;;5032336;28;20445;-78
2023/07/23 12:01:19;;;;;;;4.80;4.27;;;;;;;;;;5032286;28;20997;-78
2023/07/23 12:03:47;;;;;;;6.10;4.20;;;;;;;;;;5033258;28;20492;-78
2023/07/23 12:06:15;;;;;;;5.97;5.33;;;;;;;;;;5033493;28;20454;-78
2023/07/23 12:08:43;;;;;;;5.13;4.53;;;;;;;;;;5032748;28;20453;-78
2023/07/23 12:11:11;;;;;;;3.97;3.57;;;;;;;;;;5034859;28;20473;-78
2023/07/23 12:13:52;;;;;;;6.17;3.30;;;;;;;;;;5033246;28;20530;-76
2023/07/23 12:16:33;;;;;;;4.30;3.90;;;;;;;;;;5032844;28;21002;-76
2023/07/23 12:19:01;;;;;;;4.70;3.60;;;;;;;;;;5033123;28;20460;-79
2023/07/23 12:21:28;;;;;;;5.03;4.53;;;;;;;;;;5034091;28;20644;-78
2023/07/23 12:23:56;;;;;;;5.33;4.80;;;;;;;;;;5034157;28;20481;-75
2023/07/23 12:26:23;;;;;;;5.37;4.30;;;;;;;;;;5035944;28;20467;-78
2023/07/23 12:28:51;;;;;;;5.60;4.97;;;;;;;;;;5037736;28;20938;-79
2023/07/23 12:31:18;;;;;;;4.97;4.00;;;;;;;;;;5036848;28;20473;-78
2023/07/23 12:33:45;;;;;;;4.30;3.77;;;;;;;;;;5036176;28;20466;-78
2023/07/23 12:36:13;;;;;;;6.53;4.40;;;;;;;;;;5035805;28;20547;-78
2023/07/23 12:38:40;;;;;;;4.53;4.07;;;;;;;;;;5035262;28;20457;-77
2023/07/23 12:41:07;;;;;;;5.83;5.20;;;;;;;;;;5034983;28;20483;-77
2023/07/23 12:43:36;;;;;;;7.90;4.63;;;;;;;;;;5035005;28;20481;-77
2023/07/23 12:46:05;;;;;;;4.30;3.90;;;;;;;;;;5035041;28;20523;-77
2023/07/23 12:48:32;;;;;;;4.77;4.30;;;;;;;;;;5034736;28;20544;-77
2023/07/23 12:50:59;;;;;;;5.10;3.60;;;;;;;;;;5034976;28;20827;-77
2023/07/23 12:53:26;;;;;;;4.60;3.93;;;;;;;;;;5035769;28;20453;-77
2023/07/23 12:55:53;;;;;;;6.30;4.63;;;;;;;;;;5035623;28;20477;-75
2023/07/23 12:58:20;;;;;;;5.30;4.37;;;;;;;;;;5034389;28;20460;-77
2023/07/23 13:00:48;;;;;;;7.60;4.70;;;;;;;;;;5034866;28;20559;-76
2023/07/23 13:03:16;;;;;;;5.23;4.33;;;;;;;;;;5034610;28;20868;-76
2023/07/23 13:05:43;;;;;;;16.30;5.30;;;;;;;;;;5034772;28;20450;-78
2023/07/23 13:08:10;;;;;;;5.90;4.40;;;;;;;;;;5035286;28;20824;-77
2023/07/23 13:10:37;;;;;;;5.97;4.67;;;;;;;;;;5034289;28;20468;-77
2023/07/23 13:13:05;;;;;;;5.57;4.17;;;;;;;;;;5034341;28;20552;-77
2023/07/23 13:15:32;;;;;;;6.23;4.70;;;;;;;;;;5034446;28;20806;-76
2023/07/23 13:17:59;;;;;;;4.90;4.40;;;;;;;;;;5034095;28;20457;-77
2023/07/23 13:20:27;;;;;;;6.17;4.73;;;;;;;;;;5034175;28;20472;-76
2023/07/23 13:22:54;;;;;;;6.57;5.27;;;;;;;;;;5035160;28;20485;-77
2023/07/23 13:25:21;;;;;;;7.63;5.20;;;;;;;;;;5035091;28;20460;-77
2023/07/23 13:27:49;;;;;;;7.20;5.40;;;;;;;;;;5034665;28;20464;-78
2023/07/23 13:30:17;;;;;;;5.33;4.70;;;;;;;;;;5034734;28;20962;-77
2023/07/23 13:32:44;;;;;;;6.20;5.50;;;;;;;;;;5034979;28;20460;-77
2023/07/23 13:35:11;;;;;;;5.60;4.80;;;;;;;;;;5034673;28;20461;-77
2023/07/23 13:37:39;;;;;;;5.57;4.70;;;;;;;;;;5034049;28;20458;-77
2023/07/23 13:40:07;;;;;;;7.93;5.03;;;;;;;;;;5034629;28;20516;-77
2023/07/23 13:42:34;;;;;;;6.00;5.40;;;;;;;;;;5034054;28;20504;-77
2023/07/23 13:45:02;;;;;;;7.63;5.57;;;;;;;;;;5034699;28;20458;-77
2023/07/23 13:47:29;;;;;;;5.47;4.63;;;;;;;;;;5034082;28;20453;-77
2023/07/23 13:49:56;;;;;;;6.23;4.60;;;;;;;;;;5034318;28;20438;-76
2023/07/23 13:52:24;;;;;;;5.97;4.63;;;;;;;;;;5034214;28;20485;-77
2023/07/23 13:54:53;;;;;;;7.47;5.97;;;;;;;;;;5034403;28;20520;-78
2023/07/23 13:57:20;;;;;;;10.27;5.87;;;;;;;;;;5035059;28;20468;-78
2023/07/23 13:59:47;;;;;;;6.53;5.10;;;;;;;;;;5034786;28;20480;-78
2023/07/23 14:02:18;;;;;;;8.37;6.27;;;;;;;;;;5034296;28;20481;-77
2023/07/23 14:04:45;;;;;;;7.63;6.10;;;;;;;;;;5034542;28;20477;-78
2023/07/23 14:07:12;;;;;;;7.60;6.30;;;;;;;;;;5035000;28;20457;-78
2023/07/23 14:09:39;;;;;;;5.57;4.57;;;;;;;;;;5034863;28;20468;-78
2023/07/23 14:12:08;;;;;;;8.20;5.67;;;;;;;;;;5034612;28;20484;-77
2023/07/23 14:14:36;;;;;;;6.43;5.77;;;;;;;;;;5034096;28;20457;-77
2023/07/23 14:17:03;;;;;;;5.93;5.30;;;;;;;;;;5046955;28;20445;-77
2023/07/23 14:19:30;;;;;;;6.93;5.97;;;;;;;;;;5053218;28;20459;-76
2023/07/23 14:21:58;;;;;;;7.87;6.10;;;;;;;;;;5053196;28;20483;-77
2023/07/23 14:24:25;;;;;;;7.80;5.90;;;;;;;;;;5053969;28;20490;-77
2023/07/23 14:26:52;;;;;;;7.00;6.23;;;;;;;;;;5053872;28;20452;-78
2023/07/23 14:29:20;;;;;;;7.77;4.63;;;;;;;;;;5054621;28;20456;-77
2023/07/23 14:31:47;;;;;;;7.30;5.60;;;;;;;;;;5054362;28;20527;-77
2023/07/23 14:34:14;;;;;;;6.30;5.03;;;;;;;;;;5054037;28;20465;-78
2023/07/23 14:36:42;;;;;;;7.20;6.07;;;;;;;;;;5053756;28;21008;-77
2023/07/23 14:39:09;;;;;;;7.23;6.40;;;;;;;;;;5053712;28;20453;-78
2023/07/23 14:41:36;;;;;;;8.63;5.13;;;;;;;;;;5054140;28;20477;-78
2023/07/23 14:44:03;;;;;;;6.33;5.73;;;;;;;;;;5053651;28;20495;-77
2023/07/23 14:46:31;;;;;;;6.70;5.73;;;;;;;;;;5054302;28;20456;-77